Terminal Aerodrome Forecast
Issued by NWS

Current Version | Previous Version | Graphics & Text | Print | Product List | Glossary On
Versions: 1 2 3 4 5 6 7 8 9 10 11 12 13 14 15 16 17 18 19 20 21 22 23 24 25
000
FTUS41 KRNK 280441 AAA
TAFLWB
TAF AMD
KLWB 280441Z 2805/2824 00000KT 4SM BR SCT090
     FM280600 00000KT 1/4SM FG OVC001
     FM281400 26005KT P6SM BKN070
     FM281800 24007KT P6SM VCTS BKN050CB=

USA.gov is the U.S. government's official web portal to all federal, state and local government web resources and services.